Wetterstation-Oberesslingen
Wetterdaten: aktuell Montag, 08.03.2021 16:10
Datum Zeit Temperatur BodenT. -10 Temp+5cm Luftfeuchte Bod.Feuchte Luftdruck Regen Wind Richtung Richtung Sonnenschein ET Solar Taupunkt Windchill Windben
08.03.2021 16:10 8,3 C 5,0 C 10,0 C 40 % 48 cb 1020,7 hPa 0,0 l/m 6,0 km/h (2 Bft) NW 315 60 min 0,203 mm 258 W/m -4,5 C 7,5 C 14,5 km/h (3 Bft)
08.03.2021 15:10 8,4 C 4,4 C 16,1 C 42 % 48 cb 1021,1 hPa 0,0 l/m 7,6 km/h (2 Bft) O-NO 67 60 min 0,254 mm 487 W/m -3,8 C 7,2 C 16,1 km/h (3 Bft)
08.03.2021 14:10 7,6 C 3,9 C 18,3 C 44 % 48 cb 1021,5 hPa 0,0 l/m 2,7 km/h (1 Bft) O-NO 67 60 min 0,254 mm 543 W/m -3,9 C 7,6 C 9,7 km/h (2 Bft)
08.03.2021 13:10 6,8 C 3,9 C 15,6 C 49 % 49 cb 1022,2 hPa 0,0 l/m 4,3 km/h (1 Bft) W 270 60 min 0,279 mm 568 W/m -3,2 C 6,8 C 8,0 km/h (2 Bft)
08.03.2021 12:10 6,4 C 3,3 C 13,9 C 52 % 50 cb 1022,7 hPa 0,0 l/m 6,0 km/h (2 Bft) O-SO 112 60 min 0,254 mm 654 W/m -2,7 C 5,3 C 14,5 km/h (3 Bft)
08.03.2021 11:10 5,2 C 3,3 C 15,6 C 61 % 51 cb 1022,8 hPa 0,0 l/m 2,7 km/h (1 Bft) N-NO 22 60 min 0,203 mm 573 W/m -1,7 C 5,2 C 6,4 km/h (2 Bft)
08.03.2021 10:10 2,7 C 3,3 C 9,4 C 70 % 52 cb 1023,1 hPa 0,0 l/m 4,3 km/h (1 Bft) W-NW 292 60 min 0,127 mm 468 W/m -2,2 C 2,7 C 9,7 km/h (2 Bft)
08.03.2021 09:10 0,1 C 3,3 C 5,0 C 80 % 52 cb 1023,2 hPa 0,0 l/m 1,1 km/h (1 Bft) N-NW 337 60 min 0,076 mm 315 W/m -2,9 C 0,1 C 1,6 km/h (1 Bft)
08.03.2021 08:10 -2,6 C 3,9 C -3,9 C 87 % 52 cb 1022,9 hPa 0,0 l/m 2,7 km/h (1 Bft) O-SO 112 30 min 0,025 mm 163 W/m -4,5 C -2,6 C 3,2 km/h (1 Bft)
08.03.2021 07:10 -4,2 C 3,9 C -7,2 C 89 % 52 cb 1022,7 hPa 0,0 l/m 1,1 km/h (1 Bft) O-NO 67 5 min 0,000 mm 19 W/m -5,7 C -4,2 C 1,6 km/h (1 Bft)
08.03.2021 06:10 -4,2 C 3,9 C -8,3 C 88 % 52 cb 1022,3 hPa 0,0 l/m 1,1 km/h (1 Bft) N 0 0 min 0,000 mm 0 W/m -5,9 C -4,2 C 0,0 km/h (0 Bft)
08.03.2021 05:10 -3,8 C 3,9 C -7,8 C 87 % 52 cb 1021,8 hPa 0,0 l/m 1,1 km/h (1 Bft) O-NO 67 0 min 0,000 mm 0 W/m -5,6 C -3,8 C 1,6 km/h (1 Bft)
08.03.2021 04:10 -3,4 C 4,4 C -7,8 C 87 % 52 cb 1021,3 hPa 0,0 l/m 1,1 km/h (1 Bft) O-NO 67 0 min 0,000 mm 0 W/m -5,2 C -3,4 C 1,6 km/h (1 Bft)
08.03.2021 03:10 -2,8 C 4,4 C -7,2 C 86 % 52 cb 1021,3 hPa 0,0 l/m 1,1 km/h (1 Bft) N 0 0 min 0,000 mm 0 W/m -4,8 C -2,8 C 0,0 km/h (0 Bft)
08.03.2021 02:10 -2,4 C 4,4 C -6,1 C 85 % 51 cb 1021,5 hPa 0,0 l/m 1,1 km/h (1 Bft) O-NO 67 0 min 0,000 mm 0 W/m -4,6 C -2,4 C 1,6 km/h (1 Bft)
08.03.2021 01:10 -1,7 C 5,0 C -6,1 C 85 % 51 cb 1021,7 hPa 0,0 l/m 2,7 km/h (1 Bft) O-NO 67 0 min 0,000 mm 0 W/m -3,9 C -1,7 C 3,2 km/h (1 Bft)
08.03.2021 00:10 -1,3 C 5,0 C -5,6 C 82 % 51 cb 1021,7 hPa 0,0 l/m 1,1 km/h (1 Bft) N 0 0 min 0,000 mm 0 W/m -4,0 C -1,3 C 0,0 km/h (0 Bft)
07.03.2021 23:10 -0,5 C 5,0 C -5,0 C 80 % 50 cb 1021,8 hPa 0,0 l/m 2,7 km/h (1 Bft) N-NW 337 0 min 0,000 mm 0 W/m -3,5 C -0,5 C 3,2 km/h (1 Bft)
07.03.2021 22:10 0,4 C 5,0 C -3,9 C 77 % 50 cb 1021,7 hPa 0,0 l/m 1,1 km/h (1 Bft) N 0 0 min 0,000 mm 0 W/m -3,1 C 0,4 C 0,0 km/h (0 Bft)
07.03.2021 21:10 1,8 C 5,0 C -1,1 C 73 % 50 cb 1021,6 hPa 0,0 l/m 2,7 km/h (1 Bft) N-NW 337 0 min 0,000 mm 0 W/m -2,5 C 1,8 C 3,2 km/h (1 Bft)
07.03.2021 20:10 3,4 C 5,6 C -2,2 C 67 % 50 cb 1021,2 hPa 0,0 l/m 1,1 km/h (1 Bft) N-NW 337 0 min 0,000 mm 0 W/m -2,1 C 3,4 C 1,6 km/h (1 Bft)
07.03.2021 19:10 5,0 C 5,6 C 2,2 C 61 % 49 cb 1021,0 hPa 0,0 l/m 2,7 km/h (1 Bft) NW 315 0 min 0,025 mm 0 W/m -1,9 C 5,0 C 4,8 km/h (1 Bft)
07.03.2021 18:10 7,3 C 5,0 C 3,9 C 52 % 48 cb 1020,4 hPa 0,0 l/m 2,7 km/h (1 Bft) NW 315 20 min 0,051 mm 12 W/m -1,9 C 7,3 C 3,2 km/h (1 Bft)
07.03.2021 17:10 8,4 C 5,0 C 7,2 C 48 % 47 cb 1020,5 hPa 0,0 l/m 4,3 km/h (1 Bft) N 360 10 min 0,127 mm 111 W/m -2,0 C 8,4 C 11,3 km/h (2 Bft)
07.03.2021 17:00 8,6 C 5,0 C 7,2 C 47 % 47 cb 1020,6 hPa 0,0 l/m 4,3 km/h (1 Bft) W-NW 292 0 min 0,127 mm 142 W/m -2,1 C 8,6 C 8,0 km/h (2 Bft)
_ Min-Zeit 06:40 08:15 05:40 16:00 17:00 17:35 - 17:55 - - - - - 06:15 06:40 20:15
Minimum _ -4,4 C 3,3 C -8,3 C 39 % 47 cb 1020,3 hPa - 1,1 km/h (1 Bft) - - - - - -6,0 C -4,4 C 0,0 km/h (0 Bft)
_ Max-Zeit 15:55 18:25 14:50 07:15 02:30 08:45 17:00 11:45 - - 17:00 13:00 12:05 11:50 17:00 11:45
Maximum _ 8,7 C 5,6 C 19,4 C 90 % 52 cb 1023,2 hPa 0,0 l/m 9,2 km/h
NW (2 Bft)
- - 5 min 0,279 mm 654 W/m -1,4 C 8,6 C 17,7 km/h
O-NO (3 Bft)
Durchschnitt _ 2,2 C 4,4 C 2,1 C 69 % 50 cb 1021,7 hPa #0,0 l/m 2,7 km/h (1 Bft) O-NO - #8:35 h #1,675 mm 413 W/m -3,5 C 2,1 C 4,5 km/h (1 Bft)